sensor_id;sensor_type;location;lat;lon;timestamp;pressure;altitude;pressure_sealevel;temperature;humidity
46291;BME280;32023;44.444;26.006;2023-03-03T15:46:19;100385.28;;;7.69;58.72
46291;BME280;32023;44.444;26.006;2023-03-03T17:12:45;100444.56;;;6.64;64.13
46291;BME280;32023;44.444;26.006;2023-03-03T17:48:43;100470.94;;;6.58;67.76
46291;BME280;32023;44.444;26.006;2023-03-03T18:25:52;100485.56;;;5.98;75.26
46291;BME280;32023;44.444;26.006;2023-03-03T18:37:05;100494.56;;;5.80;76.94
46291;BME280;32023;44.444;26.006;2023-03-03T18:44:55;100484.94;;;5.77;78.28
46291;BME280;32023;44.444;26.006;2023-03-03T18:50:14;100480.72;;;5.75;79.24
46291;BME280;32023;44.444;26.006;2023-03-03T18:53:04;100486.84;;;5.70;78.78
46291;BME280;32023;44.444;26.006;2023-03-03T18:55:27;100484.13;;;5.70;78.66
46291;BME280;32023;44.444;26.006;2023-03-03T19:00:46;100488.78;;;5.70;79.84
46291;BME280;32023;44.444;26.006;2023-03-03T19:03:27;100493.63;;;5.68;80.44
46291;BME280;32023;44.444;26.006;2023-03-03T19:05:54;100498.25;;;5.67;80.33
46291;BME280;32023;44.444;26.006;2023-03-03T19:08:24;100488.78;;;5.70;80.33
46291;BME280;32023;44.444;26.006;2023-03-03T19:10:52;100493.41;;;5.69;80.43
46291;BME280;32023;44.444;26.006;2023-03-03T19:15:58;100503.88;;;5.72;81.39
46291;BME280;32023;44.444;26.006;2023-03-03T19:18:30;100502.19;;;5.71;81.44
46291;BME280;32023;44.444;26.006;2023-03-03T19:23:46;100502.44;;;5.70;81.79
46291;BME280;32023;44.444;26.006;2023-03-03T19:50:45;100507.81;;;5.58;83.07
46291;BME280;32023;44.444;26.006;2023-03-03T20:04:25;100513.94;;;5.54;83.75
46291;BME280;32023;44.444;26.006;2023-03-03T20:09:57;100514.59;;;5.49;83.64
46291;BME280;32023;44.444;26.006;2023-03-03T20:12:36;100519.47;;;5.47;83.69
46291;BME280;32023;44.444;26.006;2023-03-03T20:20:58;100531.25;;;5.41;84.69
46291;BME280;32023;44.444;26.006;2023-03-03T20:35:31;100527.41;;;5.24;85.98
46291;BME280;32023;44.444;26.006;2023-03-03T20:44:26;100527.94;;;5.08;87.56
46291;BME280;32023;44.444;26.006;2023-03-03T20:47:09;100521.63;;;5.07;87.58
46291;BME280;32023;44.444;26.006;2023-03-03T20:49:53;100526.25;;;5.07;87.46
46291;BME280;32023;44.444;26.006;2023-03-03T21:10:59;100528.44;;;4.92;89.40
46291;BME280;32023;44.444;26.006;2023-03-03T21:21:53;100541.88;;;4.93;89.79
46291;BME280;32023;44.444;26.006;2023-03-03T21:27:28;100544.81;;;4.92;89.79
46291;BME280;32023;44.444;26.006;2023-03-03T21:32:36;100539.78;;;4.89;89.72
46291;BME280;32023;44.444;26.006;2023-03-03T21:35:06;100533.75;;;4.87;89.55
46291;BME280;32023;44.444;26.006;2023-03-03T21:37:47;100537.72;;;4.84;90.20
46291;BME280;32023;44.444;26.006;2023-03-03T21:45:39;100546.75;;;4.84;90.02
46291;BME280;32023;44.444;26.006;2023-03-03T21:48:09;100545.25;;;4.89;89.77
46291;BME280;32023;44.444;26.006;2023-03-03T21:53:34;100547.97;;;4.89;89.76
46291;BME280;32023;44.444;26.006;2023-03-03T21:56:01;100556.81;;;4.91;89.51
46291;BME280;32023;44.444;26.006;2023-03-03T22:00:58;100555.56;;;4.87;90.07
46291;BME280;32023;44.444;26.006;2023-03-03T22:03:24;100552.84;;;4.87;90.06
46291;BME280;32023;44.444;26.006;2023-03-03T22:05:51;100544.00;;;4.84;90.26
46291;BME280;32023;44.444;26.006;2023-03-03T22:08:20;100551.34;;;4.84;90.29
46291;BME280;32023;44.444;26.006;2023-03-03T22:10:56;100545.06;;;4.83;90.12
46291;BME280;32023;44.444;26.006;2023-03-03T22:13:25;100548.22;;;4.80;90.22
46291;BME280;32023;44.444;26.006;2023-03-03T22:15:52;100540.28;;;4.72;90.82
46291;BME280;32023;44.444;26.006;2023-03-03T22:18:23;100541.78;;;4.68;90.49
46291;BME280;32023;44.444;26.006;2023-03-03T22:20:52;100547.88;;;4.70;91.31
46291;BME280;32023;44.444;26.006;2023-03-03T22:23:18;100547.88;;;4.70;91.02
46291;BME280;32023;44.444;26.006;2023-03-03T22:25:45;100540.28;;;4.72;90.97
46291;BME280;32023;44.444;26.006;2023-03-03T22:28:11;100548.47;;;4.72;91.26
46291;BME280;32023;44.444;26.006;2023-03-03T22:30:37;100543.66;;;4.74;91.15
46291;BME280;32023;44.444;26.006;2023-03-03T22:33:03;100544.09;;;4.71;91.02
46291;BME280;32023;44.444;26.006;2023-03-03T22:35:30;100547.88;;;4.70;91.21
46291;BME280;32023;44.444;26.006;2023-03-03T22:38:09;100538.44;;;4.66;91.73
46291;BME280;32023;44.444;26.006;2023-03-03T22:40:36;100537.41;;;4.67;91.40
46291;BME280;32023;44.444;26.006;2023-03-03T22:43:02;100533.00;;;4.66;91.43
46291;BME280;32023;44.444;26.006;2023-03-03T22:48:16;100530.31;;;4.60;92.39
46291;BME280;32023;44.444;26.006;2023-03-03T22:50:42;100533.69;;;4.55;92.17
46291;BME280;32023;44.444;26.006;2023-03-03T22:53:16;100543.31;;;4.58;92.60
46291;BME280;32023;44.444;26.006;2023-03-03T22:55:42;100542.88;;;4.61;92.49
46291;BME280;32023;44.444;26.006;2023-03-03T22:58:09;100542.00;;;4.67;92.11
46291;BME280;32023;44.444;26.006;2023-03-03T23:00:35;100533.19;;;4.71;91.97
46291;BME280;32023;44.444;26.006;2023-03-03T23:03:08;100526.91;;;4.71;91.78
46291;BME280;32023;44.444;26.006;2023-03-03T23:05:35;100532.09;;;4.72;91.32
46291;BME280;32023;44.444;26.006;2023-03-03T23:08:16;100529.81;;;4.69;90.79
46291;BME280;32023;44.444;26.006;2023-03-03T23:10:43;100526.91;;;4.71;91.33
46291;BME280;32023;44.444;26.006;2023-03-03T23:13:11;100530.66;;;4.70;91.09
46291;BME280;32023;44.444;26.006;2023-03-03T23:15:37;100526.91;;;4.71;90.67
46291;BME280;32023;44.444;26.006;2023-03-03T23:18:03;100516.81;;;4.71;91.19
46291;BME280;32023;44.444;26.006;2023-03-03T23:20:31;100530.06;;;4.68;90.92
46291;BME280;32023;44.444;26.006;2023-03-03T23:22:58;100530.88;;;4.68;91.27
46291;BME280;32023;44.444;26.006;2023-03-03T23:25:24;100527.53;;;4.66;90.94
46291;BME280;32023;44.444;26.006;2023-03-03T23:27:51;100528.59;;;4.65;91.29
46291;BME280;32023;44.444;26.006;2023-03-03T23:30:21;100528.59;;;4.65;91.63
46291;BME280;32023;44.444;26.006;2023-03-03T23:32:47;100525.84;;;4.65;91.62
46291;BME280;32023;44.444;26.006;2023-03-03T23:35:14;100523.97;;;4.66;91.58
46291;BME280;32023;44.444;26.006;2023-03-03T23:37:40;100522.69;;;4.68;91.38
46291;BME280;32023;44.444;26.006;2023-03-03T23:40:06;100526.66;;;4.72;91.01
46291;BME280;32023;44.444;26.006;2023-03-03T23:42:33;100520.59;;;4.70;90.95
46291;BME280;32023;44.444;26.006;2023-03-03T23:47:29;100528.81;;;4.64;91.07
46291;BME280;32023;44.444;26.006;2023-03-03T23:49:56;100522.94;;;4.67;91.05
46291;BME280;32023;44.444;26.006;2023-03-03T23:52:22;100527.13;;;4.63;90.84
46291;BME280;32023;44.444;26.006;2023-03-03T23:54:48;100519.56;;;4.65;91.04
46291;BME280;32023;44.444;26.006;2023-03-03T23:57:14;100525.25;;;4.63;90.76
46291;BME280;32023;44.444;26.006;2023-03-03T23:59:41;100530.25;;;4.66;90.82
